Weather reports worldwide

Advertisment
Luchon/SA, France (7724): temperature & dewpoint: 08.10.2019 14:00:00 - 14.10.2019 14:00:00 (CEST)Luchon/SA, France (7724): wind speed & gusts: 08.10.2019 14:00:00 - 14.10.2019 14:00:00 (CEST)Luchon/SA, France (7724): wind direction: 08.10.2019 14:00:00 - 14.10.2019 14:00:00 (CEST)Luchon/SA, France (7724): precipitation: 08.10.2019 14:00:00 - 14.10.2019 14:00:00 (CEST)
Date & Time tt [°C] td [°C] ff [km/h] ff [kn] fx [km/h] fx [kn] dd rr [mm]
14.10.2019 14:00:00 - - - - - - - -
14.10.2019 13:00:00 20,9 11,8 15 8 81 44 SSW 0,2
14.10.2019 12:00:00 24,5 7,2 26 14 59 32 S 0,0
14.10.2019 11:00:00 22,2 9,0 8 4 37 20 SSW 0,2
14.10.2019 10:00:00 23,1 6,4 16 9 65 35 SSE 0,0
14.10.2019 09:00:00 21,4 5,3 16 9 28 15 S 0,0
14.10.2019 08:00:00 14,0 7,5 11 6 24 13 SSE -
14.10.2019 07:00:00 12,5 7,4 0 0 11 6 N 0,0
14.10.2019 06:00:00 14,3 7,3 4 2 16 9 E 0,0
14.10.2019 05:00:00 17,6 7,0 4 2 26 14 SE 0,0
14.10.2019 04:00:00 21,9 6,9 5 3 39 21 SW 0,0
14.10.2019 03:00:00 19,3 8,0 13 7 34 18 S 0,0
14.10.2019 02:00:00 21,5 8,0 18 10 41 22 S -
14.10.2019 01:00:00 13,1 9,7 5 3 18 10 W 0,0
14.10.2019 00:00:00 12,8 9,8 8 4 18 10 N 0,0
13.10.2019 23:00:00 13,7 9,7 2 1 11 6 N 0,0
13.10.2019 22:00:00 14,3 9,7 4 2 11 6 N 0,0
13.10.2019 21:00:00 14,7 10,1 4 2 11 6 N 0,0
13.10.2019 20:00:00 16,1 10,0 4 2 11 6 SSW -
13.10.2019 19:00:00 18,6 10,2 4 2 11 6 SW 0,0
13.10.2019 18:00:00 23,7 8,5 5 3 16 9 SSW 0,0
13.10.2019 17:00:00 26,1 9,0 9 5 22 12 SSW 0,0
13.10.2019 16:00:00 27,6 8,0 11 6 31 17 S 0,0
13.10.2019 15:00:00 27,0 8,4 16 9 37 20 S 0,0
13.10.2019 14:00:00 25,9 8,8 22 12 39 21 S -
13.10.2019 13:00:00 25,6 9,4 16 9 42 23 S 0,0
13.10.2019 12:00:00 24,3 8,7 21 11 46 25 S 0,0
13.10.2019 11:00:00 22,7 9,5 24 13 44 24 S 0,0
13.10.2019 10:00:00 14,0 11,5 5 3 11 6 N 0,0
13.10.2019 09:00:00 12,0 10,1 5 3 11 6 N 0,0
13.10.2019 08:00:00 12,1 10,2 8 4 13 7 N -
13.10.2019 07:00:00 11,8 9,7 4 2 11 6 N 0,0
13.10.2019 06:00:00 11,3 9,4 4 2 11 6 NW 0,0
13.10.2019 05:00:00 12,2 9,6 2 1 11 6 N 0,0
13.10.2019 04:00:00 12,5 10,4 4 2 11 6 SSE 0,0
13.10.2019 03:00:00 13,6 10,9 4 2 13 7 W 0,0
13.10.2019 02:00:00 12,7 10,6 8 4 13 7 ENE -
13.10.2019 01:00:00 12,9 11,0 4 2 11 6 WSW 0,0
13.10.2019 00:00:00 13,5 11,0 4 2 8 4 NNW 0,0
12.10.2019 23:00:00 14,1 11,3 2 1 9 5 SE 0,0
12.10.2019 22:00:00 15,9 11,7 4 2 9 5 NE 0,0
12.10.2019 21:00:00 17,2 12,3 0 0 11 6 N 0,0
12.10.2019 20:00:00 19,9 12,6 8 4 26 14 NNE -
12.10.2019 19:00:00 24,1 9,7 11 6 37 20 SSW 0,0
12.10.2019 18:00:00 26,1 8,6 21 11 37 20 S 0,0
12.10.2019 17:00:00 26,5 10,2 18 10 39 21 S 0,0
12.10.2019 16:00:00 27,2 10,0 22 12 46 25 S 0,0
12.10.2019 15:00:00 27,5 10,2 21 11 39 21 S 0,0
12.10.2019 14:00:00 24,4 14,2 8 4 16 9 N -
12.10.2019 13:00:00 20,8 13,7 4 2 9 5 N 0,0
12.10.2019 12:00:00 17,0 13,5 2 1 8 4 NNW 0,0
12.10.2019 11:00:00 14,8 12,7 4 2 8 4 NNE 0,0
12.10.2019 10:00:00 13,7 11,7 0 0 11 6 N 0,0
12.10.2019 09:00:00 13,4 11,3 0 0 11 6 N 0,0
12.10.2019 08:00:00 13,2 11,1 8 4 15 8 SSE -
12.10.2019 07:00:00 12,4 10,6 4 2 13 7 SSE 0,0
12.10.2019 06:00:00 11,9 10,3 4 2 15 8 N 0,0
12.10.2019 05:00:00 11,8 10,2 2 1 9 5 W 0,0
12.10.2019 04:00:00 11,4 10,0 4 2 11 6 WNW 0,0
12.10.2019 03:00:00 11,2 9,8 4 2 16 9 W 0,0
12.10.2019 02:00:00 10,8 9,6 4 2 9 5 NNE -
12.10.2019 01:00:00 10,2 8,8 4 2 9 5 ESE 0,0
12.10.2019 00:00:00 10,8 9,1 2 1 5 3 SSE 0,0
11.10.2019 23:00:00 12,0 9,6 2 1 11 6 S 0,0
11.10.2019 22:00:00 12,7 9,9 5 3 11 6 N 0,0
11.10.2019 21:00:00 13,5 9,9 2 1 13 7 NNW 0,0
11.10.2019 20:00:00 16,1 10,4 4 2 16 9 S -
11.10.2019 19:00:00 17,9 10,0 2 1 21 11 NE 0,0
11.10.2019 18:00:00 22,0 9,5 9 5 28 15 SSW 0,0
11.10.2019 17:00:00 26,3 9,2 9 5 29 16 N 0,0
11.10.2019 16:00:00 26,7 8,6 16 9 34 18 N 0,0
11.10.2019 15:00:00 26,8 7,3 2 1 9 5 SSE 0,0
11.10.2019 14:00:00 25,8 8,7 4 2 9 5 S -
11.10.2019 13:00:00 22,4 8,9 2 1 8 4 SSE 0,0
11.10.2019 12:00:00 18,2 8,5 2 1 8 4 E 0,0
11.10.2019 11:00:00 12,2 8,7 2 1 8 4 ESE 0,0
11.10.2019 10:00:00 7,7 7,7 0 0 4 2 N 0,0
11.10.2019 09:00:00 4,5 4,4 2 1 4 2 NE 0,0
11.10.2019 08:00:00 4,3 4,0 4 2 5 3 SSE -
11.10.2019 07:00:00 4,8 4,7 0 0 8 4 N 0,0
11.10.2019 06:00:00 4,6 4,3 0 0 5 3 N 0,0
11.10.2019 05:00:00 5,1 4,8 0 0 5 3 N 0,0
11.10.2019 04:00:00 5,2 4,6 2 1 5 3 E 0,0
11.10.2019 03:00:00 6,1 5,7 4 2 5 3 SSE 0,0
11.10.2019 02:00:00 6,5 6,2 0 0 8 4 N -
11.10.2019 01:00:00 7,0 6,7 2 1 5 3 E 0,0
11.10.2019 00:00:00 7,7 6,9 0 0 5 3 N 0,0
10.10.2019 23:00:00 7,9 6,8 0 0 4 2 N 0,0
10.10.2019 22:00:00 9,4 7,8 0 0 8 4 N 0,0
10.10.2019 21:00:00 11,0 8,4 8 4 18 10 S 0,0
10.10.2019 20:00:00 12,5 8,8 4 2 16 9 S -
10.10.2019 19:00:00 14,3 9,1 8 4 16 9 SSW 0,0
10.10.2019 18:00:00 16,4 8,1 5 3 26 14 SSE 0,0
10.10.2019 17:00:00 18,4 7,8 13 7 31 17 N 0,0
10.10.2019 16:00:00 19,1 8,4 16 9 26 14 N 0,0
10.10.2019 15:00:00 19,0 8,3 11 6 18 10 N 0,0
10.10.2019 14:00:00 18,6 8,0 5 3 16 9 SSW -
10.10.2019 13:00:00 16,9 7,5 8 4 21 11 SSE 0,0
10.10.2019 12:00:00 15,3 7,8 9 5 16 9 SE 0,0
10.10.2019 11:00:00 12,8 9,8 5 3 11 6 SSW 0,0
10.10.2019 10:00:00 11,6 10,0 5 3 13 7 N 0,0
10.10.2019 09:00:00 11,0 10,1 4 2 8 4 ESE 0,0
10.10.2019 08:00:00 10,7 9,9 2 1 8 4 SE -
10.10.2019 07:00:00 10,7 9,8 4 2 9 5 N 0,0
10.10.2019 06:00:00 10,4 9,6 2 1 11 6 S 0,0
10.10.2019 05:00:00 11,1 10,2 4 2 8 4 S 0,0
10.10.2019 04:00:00 11,1 10,0 4 2 8 4 N 0,0
10.10.2019 03:00:00 11,1 9,8 4 2 11 6 N 0,0
10.10.2019 02:00:00 11,1 9,8 2 1 4 2 N -
10.10.2019 01:00:00 11,1 9,8 2 1 5 3 E 0,0
10.10.2019 00:00:00 11,2 9,8 4 2 5 3 N 0,0
09.10.2019 23:00:00 11,5 9,7 0 0 8 4 N 0,0
09.10.2019 22:00:00 11,6 9,3 0 0 8 4 N 0,0
09.10.2019 21:00:00 11,5 9,9 5 3 28 15 NNE 0,0
09.10.2019 20:00:00 12,5 10,4 13 7 28 15 NNE -
09.10.2019 19:00:00 12,9 11,0 15 8 29 16 NNE 0,0
09.10.2019 18:00:00 14,0 10,4 16 9 29 16 N 0,0
09.10.2019 17:00:00 14,8 10,6 8 4 28 15 NNE 0,0
09.10.2019 16:00:00 14,7 10,7 9 5 35 19 NNE 0,0
09.10.2019 15:00:00 14,2 11,0 22 12 37 20 NNE 0,0
09.10.2019 14:00:00 15,2 11,8 9 5 28 15 NE -
09.10.2019 13:00:00 14,3 11,3 13 7 28 15 N 0,0
09.10.2019 12:00:00 13,4 11,1 5 3 15 8 NNE 0,0
09.10.2019 11:00:00 13,1 11,0 5 3 13 7 N 0,0
09.10.2019 10:00:00 12,8 10,9 4 2 15 8 N 0,0
09.10.2019 09:00:00 12,5 10,9 8 4 29 16 N 0,0
09.10.2019 08:00:00 12,9 11,6 5 3 16 9 N -
09.10.2019 07:00:00 12,1 11,0 8 4 15 8 S 0,0
09.10.2019 06:00:00 11,0 10,1 4 2 9 5 NNW 0,0
09.10.2019 05:00:00 10,9 10,0 4 2 8 4 SSE 0,0
09.10.2019 04:00:00 12,6 11,0 2 1 5 3 N 0,0
09.10.2019 03:00:00 12,8 11,2 2 1 4 2 NNE 0,0
09.10.2019 02:00:00 11,7 10,6 0 0 2 1 N -
09.10.2019 01:00:00 12,1 10,2 0 0 4 2 N 0,0
09.10.2019 00:00:00 13,5 9,9 2 1 5 3 N 0,0
08.10.2019 23:00:00 17,8 8,6 4 2 21 11 W 0,0
08.10.2019 22:00:00 19,2 8,5 13 7 28 15 N 0,0
08.10.2019 21:00:00 20,3 12,0 11 6 22 12 NNE 0,0
08.10.2019 20:00:00 20,4 14,5 2 1 11 6 ESE -
08.10.2019 19:00:00 22,2 14,3 5 3 29 16 NE 0,0
08.10.2019 18:00:00 23,5 13,7 13 7 39 21 N 0,0
08.10.2019 17:00:00 24,7 14,2 15 8 41 22 N 0,0
08.10.2019 16:00:00 25,3 14,1 18 10 39 21 N 0,0
08.10.2019 15:00:00 25,2 14,3 18 10 37 20 N 0,0
08.10.2019 14:00:00 25,2 14,3 16 9 31 17 N -

tt = temperature
td = dewpoint
ff = wind speed
fx = gusts
dd = wind direction
rr = precipitation

Next stations